sensor_id;sensor_type;location;lat;lon;timestamp;temperature;humidity
7686;DHT22;3885;51.474;-2.576;2022-07-23T00:00:28;15.50;99.90
7686;DHT22;3885;51.474;-2.576;2022-07-23T00:02:56;15.50;99.90
7686;DHT22;3885;51.474;-2.576;2022-07-23T00:05:23;15.50;99.90
7686;DHT22;3885;51.474;-2.576;2022-07-23T00:07:50;15.40;99.90
7686;DHT22;3885;51.474;-2.576;2022-07-23T00:10:17;15.40;99.90
7686;DHT22;3885;51.474;-2.576;2022-07-23T00:12:44;15.40;99.90
7686;DHT22;3885;51.474;-2.576;2022-07-23T00:15:11;15.40;99.90
7686;DHT22;3885;51.474;-2.576;2022-07-23T00:17:38;15.40;99.90
7686;DHT22;3885;51.474;-2.576;2022-07-23T00:20:07;15.20;99.90
7686;DHT22;3885;51.474;-2.576;2022-07-23T00:22:34;15.20;99.90
7686;DHT22;3885;51.474;-2.576;2022-07-23T00:25:01;15.10;99.90
7686;DHT22;3885;51.474;-2.576;2022-07-23T00:27:28;15.10;99.90
7686;DHT22;3885;51.474;-2.576;2022-07-23T00:29:55;15.10;99.90
7686;DHT22;3885;51.474;-2.576;2022-07-23T00:32:22;14.90;99.90
7686;DHT22;3885;51.474;-2.576;2022-07-23T00:34:49;14.90;99.90
7686;DHT22;3885;51.474;-2.576;2022-07-23T00:37:17;14.90;99.90
7686;DHT22;3885;51.474;-2.576;2022-07-23T00:39:44;14.90;99.90
7686;DHT22;3885;51.474;-2.576;2022-07-23T00:42:11;14.80;99.90
7686;DHT22;3885;51.474;-2.576;2022-07-23T00:44:38;14.70;99.90
7686;DHT22;3885;51.474;-2.576;2022-07-23T00:47:05;14.70;99.90
7686;DHT22;3885;51.474;-2.576;2022-07-23T00:49:32;14.60;99.90
7686;DHT22;3885;51.474;-2.576;2022-07-23T00:52:01;14.60;99.90
7686;DHT22;3885;51.474;-2.576;2022-07-23T00:54:30;14.60;99.90
7686;DHT22;3885;51.474;-2.576;2022-07-23T00:56:57;14.60;99.90
7686;DHT22;3885;51.474;-2.576;2022-07-23T00:59:24;14.50;99.90
7686;DHT22;3885;51.474;-2.576;2022-07-23T01:01:51;14.50;99.90
7686;DHT22;3885;51.474;-2.576;2022-07-23T01:04:18;14.60;99.90
7686;DHT22;3885;51.474;-2.576;2022-07-23T01:06:45;14.50;99.90
7686;DHT22;3885;51.474;-2.576;2022-07-23T01:09:12;14.50;99.90
7686;DHT22;3885;51.474;-2.576;2022-07-23T01:11:41;14.40;99.90
7686;DHT22;3885;51.474;-2.576;2022-07-23T01:14:12;14.40;99.90
7686;DHT22;3885;51.474;-2.576;2022-07-23T01:16:41;14.40;99.90
7686;DHT22;3885;51.474;-2.576;2022-07-23T01:19:08;14.30;99.90
7686;DHT22;3885;51.474;-2.576;2022-07-23T01:21:37;14.30;99.90
7686;DHT22;3885;51.474;-2.576;2022-07-23T01:24:07;14.30;99.90
7686;DHT22;3885;51.474;-2.576;2022-07-23T01:26:34;14.30;99.90
7686;DHT22;3885;51.474;-2.576;2022-07-23T01:29:01;14.30;99.90
7686;DHT22;3885;51.474;-2.576;2022-07-23T01:31:28;14.20;99.90
7686;DHT22;3885;51.474;-2.576;2022-07-23T01:33:56;14.20;99.90
7686;DHT22;3885;51.474;-2.576;2022-07-23T01:36:23;14.00;99.90
7686;DHT22;3885;51.474;-2.576;2022-07-23T01:38:50;14.00;99.90
7686;DHT22;3885;51.474;-2.576;2022-07-23T01:41:18;14.10;99.90
7686;DHT22;3885;51.474;-2.576;2022-07-23T01:43:45;14.00;99.90
7686;DHT22;3885;51.474;-2.576;2022-07-23T01:46:12;14.00;99.90
7686;DHT22;3885;51.474;-2.576;2022-07-23T01:48:39;13.90;99.90
7686;DHT22;3885;51.474;-2.576;2022-07-23T01:51:06;13.90;99.90
7686;DHT22;3885;51.474;-2.576;2022-07-23T01:56:01;13.80;99.90
7686;DHT22;3885;51.474;-2.576;2022-07-23T01:58:30;13.80;99.90
7686;DHT22;3885;51.474;-2.576;2022-07-23T02:00:57;13.70;99.90
7686;DHT22;3885;51.474;-2.576;2022-07-23T02:03:25;13.70;99.90
7686;DHT22;3885;51.474;-2.576;2022-07-23T02:05:52;13.70;99.90
7686;DHT22;3885;51.474;-2.576;2022-07-23T02:08:19;13.60;99.90
7686;DHT22;3885;51.474;-2.576;2022-07-23T02:10:46;13.60;99.90
7686;DHT22;3885;51.474;-2.576;2022-07-23T02:13:14;13.50;99.90
7686;DHT22;3885;51.474;-2.576;2022-07-23T02:15:42;13.50;99.90
7686;DHT22;3885;51.474;-2.576;2022-07-23T02:18:09;13.50;99.90
7686;DHT22;3885;51.474;-2.576;2022-07-23T02:20:36;13.50;99.90
7686;DHT22;3885;51.474;-2.576;2022-07-23T02:23:04;13.50;99.90
7686;DHT22;3885;51.474;-2.576;2022-07-23T02:25:32;13.40;99.90
7686;DHT22;3885;51.474;-2.576;2022-07-23T02:27:59;13.40;99.90
7686;DHT22;3885;51.474;-2.576;2022-07-23T02:30:26;13.40;99.90
7686;DHT22;3885;51.474;-2.576;2022-07-23T02:32:54;13.40;99.90
7686;DHT22;3885;51.474;-2.576;2022-07-23T02:35:21;13.40;99.90
7686;DHT22;3885;51.474;-2.576;2022-07-23T02:37:48;13.30;99.90
7686;DHT22;3885;51.474;-2.576;2022-07-23T02:40:15;13.30;99.90
7686;DHT22;3885;51.474;-2.576;2022-07-23T02:42:42;13.30;99.90
7686;DHT22;3885;51.474;-2.576;2022-07-23T02:45:09;13.30;99.90
7686;DHT22;3885;51.474;-2.576;2022-07-23T02:47:36;13.30;99.90
7686;DHT22;3885;51.474;-2.576;2022-07-23T02:50:05;13.30;99.90
7686;DHT22;3885;51.474;-2.576;2022-07-23T02:52:32;13.30;99.90
7686;DHT22;3885;51.474;-2.576;2022-07-23T02:54:59;13.30;99.90
7686;DHT22;3885;51.474;-2.576;2022-07-23T02:57:26;13.20;99.90
7686;DHT22;3885;51.474;-2.576;2022-07-23T02:59:53;13.20;99.90
7686;DHT22;3885;51.474;-2.576;2022-07-23T03:02:20;13.10;99.90
7686;DHT22;3885;51.474;-2.576;2022-07-23T03:04:47;13.10;99.90
7686;DHT22;3885;51.474;-2.576;2022-07-23T03:07:16;13.10;99.90
7686;DHT22;3885;51.474;-2.576;2022-07-23T03:09:43;13.00;99.90
7686;DHT22;3885;51.474;-2.576;2022-07-23T03:12:09;13.10;99.90
7686;DHT22;3885;51.474;-2.576;2022-07-23T03:14:36;13.00;99.90
7686;DHT22;3885;51.474;-2.576;2022-07-23T03:17:03;13.00;99.90
7686;DHT22;3885;51.474;-2.576;2022-07-23T03:19:30;13.00;99.90
7686;DHT22;3885;51.474;-2.576;2022-07-23T03:21:57;13.00;99.90
7686;DHT22;3885;51.474;-2.576;2022-07-23T03:24:25;12.90;99.90
7686;DHT22;3885;51.474;-2.576;2022-07-23T03:27:14;12.90;99.90
7686;DHT22;3885;51.474;-2.576;2022-07-23T03:29:41;12.90;99.90
7686;DHT22;3885;51.474;-2.576;2022-07-23T03:32:08;12.80;99.90
7686;DHT22;3885;51.474;-2.576;2022-07-23T03:34:35;12.80;99.90
7686;DHT22;3885;51.474;-2.576;2022-07-23T03:37:03;12.80;99.90
7686;DHT22;3885;51.474;-2.576;2022-07-23T03:39:31;12.80;99.90
7686;DHT22;3885;51.474;-2.576;2022-07-23T03:41:58;12.70;99.90
7686;DHT22;3885;51.474;-2.576;2022-07-23T03:44:25;12.70;99.90
7686;DHT22;3885;51.474;-2.576;2022-07-23T03:46:52;12.70;99.90
7686;DHT22;3885;51.474;-2.576;2022-07-23T03:49:19;12.70;99.90
7686;DHT22;3885;51.474;-2.576;2022-07-23T03:51:46;12.70;99.90
7686;DHT22;3885;51.474;-2.576;2022-07-23T03:54:13;12.60;99.90
7686;DHT22;3885;51.474;-2.576;2022-07-23T03:56:41;12.60;99.90
7686;DHT22;3885;51.474;-2.576;2022-07-23T03:59:09;12.50;99.90
7686;DHT22;3885;51.474;-2.576;2022-07-23T04:01:36;12.40;99.90
7686;DHT22;3885;51.474;-2.576;2022-07-23T04:04:03;12.40;99.90
7686;DHT22;3885;51.474;-2.576;2022-07-23T04:06:30;12.40;99.90
7686;DHT22;3885;51.474;-2.576;2022-07-23T04:08:58;12.40;99.90
7686;DHT22;3885;51.474;-2.576;2022-07-23T04:11:25;12.40;99.90
7686;DHT22;3885;51.474;-2.576;2022-07-23T04:13:53;12.30;99.90
7686;DHT22;3885;51.474;-2.576;2022-07-23T04:16:20;12.30;99.90
7686;DHT22;3885;51.474;-2.576;2022-07-23T04:18:47;12.30;99.90
7686;DHT22;3885;51.474;-2.576;2022-07-23T04:21:14;12.30;99.90
7686;DHT22;3885;51.474;-2.576;2022-07-23T04:23:40;12.30;99.90
7686;DHT22;3885;51.474;-2.576;2022-07-23T04:26:07;12.30;99.90
7686;DHT22;3885;51.474;-2.576;2022-07-23T04:28:34;12.30;99.90
7686;DHT22;3885;51.474;-2.576;2022-07-23T04:31:02;12.30;99.90
7686;DHT22;3885;51.474;-2.576;2022-07-23T04:33:29;12.30;99.90
7686;DHT22;3885;51.474;-2.576;2022-07-23T04:35:56;12.30;99.90
7686;DHT22;3885;51.474;-2.576;2022-07-23T04:38:23;12.40;99.90
7686;DHT22;3885;51.474;-2.576;2022-07-23T04:40:50;12.40;99.90
7686;DHT22;3885;51.474;-2.576;2022-07-23T04:43:17;12.40;99.90
7686;DHT22;3885;51.474;-2.576;2022-07-23T04:45:45;12.50;99.90
7686;DHT22;3885;51.474;-2.576;2022-07-23T04:48:14;12.50;99.90
7686;DHT22;3885;51.474;-2.576;2022-07-23T04:50:41;12.60;99.90
7686;DHT22;3885;51.474;-2.576;2022-07-23T04:53:09;12.60;99.90
7686;DHT22;3885;51.474;-2.576;2022-07-23T04:55:36;12.70;99.90
7686;DHT22;3885;51.474;-2.576;2022-07-23T04:58:03;12.70;99.90
7686;DHT22;3885;51.474;-2.576;2022-07-23T05:00:29;12.80;99.90
7686;DHT22;3885;51.474;-2.576;2022-07-23T05:02:56;12.90;99.90
7686;DHT22;3885;51.474;-2.576;2022-07-23T05:05:25;13.00;99.90
7686;DHT22;3885;51.474;-2.576;2022-07-23T05:07:52;13.00;99.90
7686;DHT22;3885;51.474;-2.576;2022-07-23T05:10:18;13.20;99.90
7686;DHT22;3885;51.474;-2.576;2022-07-23T05:12:46;13.30;99.90
7686;DHT22;3885;51.474;-2.576;2022-07-23T05:15:13;13.40;99.90
7686;DHT22;3885;51.474;-2.576;2022-07-23T05:17:39;13.50;99.90
7686;DHT22;3885;51.474;-2.576;2022-07-23T05:20:07;13.60;99.90
7686;DHT22;3885;51.474;-2.576;2022-07-23T05:22:35;13.60;99.90
7686;DHT22;3885;51.474;-2.576;2022-07-23T05:25:03;13.70;99.90
7686;DHT22;3885;51.474;-2.576;2022-07-23T05:27:30;13.90;99.90
7686;DHT22;3885;51.474;-2.576;2022-07-23T05:29:57;14.00;99.90
7686;DHT22;3885;51.474;-2.576;2022-07-23T05:32:24;14.00;99.90
7686;DHT22;3885;51.474;-2.576;2022-07-23T05:34:51;14.10;99.90
7686;DHT22;3885;51.474;-2.576;2022-07-23T05:37:18;14.20;99.90
7686;DHT22;3885;51.474;-2.576;2022-07-23T05:39:46;14.20;99.90
7686;DHT22;3885;51.474;-2.576;2022-07-23T05:42:13;14.40;99.90
7686;DHT22;3885;51.474;-2.576;2022-07-23T05:44:40;14.50;99.90
7686;DHT22;3885;51.474;-2.576;2022-07-23T05:47:07;14.60;99.90
7686;DHT22;3885;51.474;-2.576;2022-07-23T05:49:34;14.70;99.90
7686;DHT22;3885;51.474;-2.576;2022-07-23T05:52:04;14.90;99.90
7686;DHT22;3885;51.474;-2.576;2022-07-23T05:54:33;15.00;99.90
7686;DHT22;3885;51.474;-2.576;2022-07-23T05:57:01;15.20;99.90
7686;DHT22;3885;51.474;-2.576;2022-07-23T05:59:29;15.40;99.90
7686;DHT22;3885;51.474;-2.576;2022-07-23T06:01:56;15.50;99.90
7686;DHT22;3885;51.474;-2.576;2022-07-23T06:04:23;15.60;99.90
7686;DHT22;3885;51.474;-2.576;2022-07-23T06:06:49;15.60;99.90
7686;DHT22;3885;51.474;-2.576;2022-07-23T06:09:16;15.70;99.90
7686;DHT22;3885;51.474;-2.576;2022-07-23T06:11:43;15.70;99.90
7686;DHT22;3885;51.474;-2.576;2022-07-23T06:14:12;15.80;99.90
7686;DHT22;3885;51.474;-2.576;2022-07-23T06:16:39;15.90;99.90
7686;DHT22;3885;51.474;-2.576;2022-07-23T06:19:05;15.90;99.90
7686;DHT22;3885;51.474;-2.576;2022-07-23T06:21:32;16.10;99.90
7686;DHT22;3885;51.474;-2.576;2022-07-23T06:23:59;16.20;99.90
7686;DHT22;3885;51.474;-2.576;2022-07-23T06:26:26;16.30;99.90
7686;DHT22;3885;51.474;-2.576;2022-07-23T06:28:53;16.30;99.90
7686;DHT22;3885;51.474;-2.576;2022-07-23T06:31:21;16.40;99.90
7686;DHT22;3885;51.474;-2.576;2022-07-23T06:33:48;16.50;99.90
7686;DHT22;3885;51.474;-2.576;2022-07-23T06:36:15;16.50;99.90
7686;DHT22;3885;51.474;-2.576;2022-07-23T06:38:42;16.60;99.90
7686;DHT22;3885;51.474;-2.576;2022-07-23T06:41:09;16.60;99.90
7686;DHT22;3885;51.474;-2.576;2022-07-23T06:43:36;16.60;99.90
7686;DHT22;3885;51.474;-2.576;2022-07-23T06:46:03;16.70;99.90
7686;DHT22;3885;51.474;-2.576;2022-07-23T06:48:31;16.80;99.90
7686;DHT22;3885;51.474;-2.576;2022-07-23T06:51:00;17.00;99.90
7686;DHT22;3885;51.474;-2.576;2022-07-23T06:53:27;17.00;99.90
7686;DHT22;3885;51.474;-2.576;2022-07-23T06:55:54;17.40;99.90
7686;DHT22;3885;51.474;-2.576;2022-07-23T06:58:21;17.50;99.90
7686;DHT22;3885;51.474;-2.576;2022-07-23T07:00:47;17.60;99.90
7686;DHT22;3885;51.474;-2.576;2022-07-23T07:03:16;17.60;99.90
7686;DHT22;3885;51.474;-2.576;2022-07-23T07:05:45;17.80;99.90
7686;DHT22;3885;51.474;-2.576;2022-07-23T07:08:12;17.90;99.90
7686;DHT22;3885;51.474;-2.576;2022-07-23T07:10:39;18.00;99.90
7686;DHT22;3885;51.474;-2.576;2022-07-23T07:13:06;18.10;99.90
7686;DHT22;3885;51.474;-2.576;2022-07-23T07:15:33;18.30;99.90
7686;DHT22;3885;51.474;-2.576;2022-07-23T07:17:59;18.40;99.90
7686;DHT22;3885;51.474;-2.576;2022-07-23T07:20:26;18.60;99.90
7686;DHT22;3885;51.474;-2.576;2022-07-23T07:22:55;18.70;99.90
7686;DHT22;3885;51.474;-2.576;2022-07-23T07:25:22;18.80;99.90
7686;DHT22;3885;51.474;-2.576;2022-07-23T07:27:48;19.10;99.90
7686;DHT22;3885;51.474;-2.576;2022-07-23T07:30:15;19.30;99.90
7686;DHT22;3885;51.474;-2.576;2022-07-23T07:32:43;19.30;99.90
7686;DHT22;3885;51.474;-2.576;2022-07-23T07:35:09;18.50;99.90
7686;DHT22;3885;51.474;-2.576;2022-07-23T07:37:36;19.40;99.90
7686;DHT22;3885;51.474;-2.576;2022-07-23T07:40:06;19.40;99.90
7686;DHT22;3885;51.474;-2.576;2022-07-23T07:42:33;19.30;99.90
7686;DHT22;3885;51.474;-2.576;2022-07-23T07:45:00;19.30;99.90
7686;DHT22;3885;51.474;-2.576;2022-07-23T07:47:27;19.10;99.90
7686;DHT22;3885;51.474;-2.576;2022-07-23T07:49:54;19.20;99.90
7686;DHT22;3885;51.474;-2.576;2022-07-23T07:52:21;19.40;99.90
7686;DHT22;3885;51.474;-2.576;2022-07-23T07:54:48;19.50;99.90
7686;DHT22;3885;51.474;-2.576;2022-07-23T07:57:17;19.40;99.90
7686;DHT22;3885;51.474;-2.576;2022-07-23T07:59:43;19.30;99.90
7686;DHT22;3885;51.474;-2.576;2022-07-23T08:02:10;19.30;99.90
7686;DHT22;3885;51.474;-2.576;2022-07-23T08:04:37;19.30;99.90
7686;DHT22;3885;51.474;-2.576;2022-07-23T08:07:04;19.50;99.90
7686;DHT22;3885;51.474;-2.576;2022-07-23T08:09:31;19.60;99.90
7686;DHT22;3885;51.474;-2.576;2022-07-23T08:11:58;20.00;99.90
7686;DHT22;3885;51.474;-2.576;2022-07-23T08:14:26;20.40;99.90
7686;DHT22;3885;51.474;-2.576;2022-07-23T08:16:53;20.50;99.90
7686;DHT22;3885;51.474;-2.576;2022-07-23T08:19:20;20.70;99.90
7686;DHT22;3885;51.474;-2.576;2022-07-23T08:21:47;20.70;99.90
7686;DHT22;3885;51.474;-2.576;2022-07-23T08:24:13;20.70;99.90
7686;DHT22;3885;51.474;-2.576;2022-07-23T08:26:41;20.60;99.90
7686;DHT22;3885;51.474;-2.576;2022-07-23T08:29:08;20.50;99.90
7686;DHT22;3885;51.474;-2.576;2022-07-23T08:31:36;20.60;99.90
7686;DHT22;3885;51.474;-2.576;2022-07-23T08:34:03;20.70;99.90
7686;DHT22;3885;51.474;-2.576;2022-07-23T08:36:30;21.10;99.90
7686;DHT22;3885;51.474;-2.576;2022-07-23T08:38:58;21.20;99.90
7686;DHT22;3885;51.474;-2.576;2022-07-23T08:41:27;21.40;99.90
7686;DHT22;3885;51.474;-2.576;2022-07-23T08:43:55;21.30;99.90
7686;DHT22;3885;51.474;-2.576;2022-07-23T08:46:22;21.30;99.90
7686;DHT22;3885;51.474;-2.576;2022-07-23T08:48:52;21.40;99.90
7686;DHT22;3885;51.474;-2.576;2022-07-23T08:51:19;21.40;99.90
7686;DHT22;3885;51.474;-2.576;2022-07-23T08:53:47;21.40;99.90
7686;DHT22;3885;51.474;-2.576;2022-07-23T08:56:14;21.20;99.90
7686;DHT22;3885;51.474;-2.576;2022-07-23T08:58:41;21.00;99.90
7686;DHT22;3885;51.474;-2.576;2022-07-23T09:01:08;20.90;99.90
7686;DHT22;3885;51.474;-2.576;2022-07-23T09:03:36;20.90;99.90
7686;DHT22;3885;51.474;-2.576;2022-07-23T09:06:05;20.70;99.90
7686;DHT22;3885;51.474;-2.576;2022-07-23T09:08:37;20.80;99.90
7686;DHT22;3885;51.474;-2.576;2022-07-23T09:11:06;20.70;99.90
7686;DHT22;3885;51.474;-2.576;2022-07-23T09:13:36;20.60;99.90
7686;DHT22;3885;51.474;-2.576;2022-07-23T09:16:06;20.50;99.90
7686;DHT22;3885;51.474;-2.576;2022-07-23T09:18:36;20.70;99.90
7686;DHT22;3885;51.474;-2.576;2022-07-23T09:21:17;20.60;99.90
7686;DHT22;3885;51.474;-2.576;2022-07-23T09:23:46;20.70;99.90
7686;DHT22;3885;51.474;-2.576;2022-07-23T09:26:34;20.80;99.90
7686;DHT22;3885;51.474;-2.576;2022-07-23T09:29:07;20.80;99.90
7686;DHT22;3885;51.474;-2.576;2022-07-23T09:31:46;20.90;99.90
7686;DHT22;3885;51.474;-2.576;2022-07-23T09:34:17;20.70;99.90
7686;DHT22;3885;51.474;-2.576;2022-07-23T09:36:46;20.70;99.90
7686;DHT22;3885;51.474;-2.576;2022-07-23T09:39:14;20.80;99.90
7686;DHT22;3885;51.474;-2.576;2022-07-23T09:41:44;20.80;99.90
7686;DHT22;3885;51.474;-2.576;2022-07-23T09:44:14;20.90;99.90
7686;DHT22;3885;51.474;-2.576;2022-07-23T09:46:43;21.10;99.90
7686;DHT22;3885;51.474;-2.576;2022-07-23T09:49:16;21.30;99.90
7686;DHT22;3885;51.474;-2.576;2022-07-23T09:51:46;21.60;99.90
7686;DHT22;3885;51.474;-2.576;2022-07-23T09:54:28;21.80;99.90
7686;DHT22;3885;51.474;-2.576;2022-07-23T09:56:58;22.00;99.90
7686;DHT22;3885;51.474;-2.576;2022-07-23T09:59:27;21.90;99.90
7686;DHT22;3885;51.474;-2.576;2022-07-23T10:01:55;22.00;99.90
7686;DHT22;3885;51.474;-2.576;2022-07-23T10:04:23;21.90;99.90
7686;DHT22;3885;51.474;-2.576;2022-07-23T10:06:54;22.00;99.90
7686;DHT22;3885;51.474;-2.576;2022-07-23T10:09:24;22.00;99.90
7686;DHT22;3885;51.474;-2.576;2022-07-23T10:11:53;21.90;99.90
7686;DHT22;3885;51.474;-2.576;2022-07-23T10:14:21;21.90;99.90
7686;DHT22;3885;51.474;-2.576;2022-07-23T10:16:48;22.00;99.90
7686;DHT22;3885;51.474;-2.576;2022-07-23T10:19:15;21.90;99.90
7686;DHT22;3885;51.474;-2.576;2022-07-23T10:21:46;21.90;99.90
7686;DHT22;3885;51.474;-2.576;2022-07-23T10:24:24;21.70;99.90
7686;DHT22;3885;51.474;-2.576;2022-07-23T10:27:04;21.70;99.90
7686;DHT22;3885;51.474;-2.576;2022-07-23T10:29:42;21.60;99.90
7686;DHT22;3885;51.474;-2.576;2022-07-23T10:32:20;21.70;99.90
7686;DHT22;3885;51.474;-2.576;2022-07-23T10:35:00;21.60;99.90
7686;DHT22;3885;51.474;-2.576;2022-07-23T10:37:36;21.70;99.90
7686;DHT22;3885;51.474;-2.576;2022-07-23T10:40:13;21.70;99.90
7686;DHT22;3885;51.474;-2.576;2022-07-23T10:42:42;21.40;99.90
7686;DHT22;3885;51.474;-2.576;2022-07-23T10:45:31;21.20;99.90
7686;DHT22;3885;51.474;-2.576;2022-07-23T10:48:14;21.10;99.90
7686;DHT22;3885;51.474;-2.576;2022-07-23T10:50:41;21.00;99.90
7686;DHT22;3885;51.474;-2.576;2022-07-23T10:53:11;21.00;99.90
7686;DHT22;3885;51.474;-2.576;2022-07-23T10:55:43;20.90;99.90
7686;DHT22;3885;51.474;-2.576;2022-07-23T10:58:10;20.90;99.90
7686;DHT22;3885;51.474;-2.576;2022-07-23T11:00:37;20.90;99.90
7686;DHT22;3885;51.474;-2.576;2022-07-23T11:03:28;20.90;99.90
7686;DHT22;3885;51.474;-2.576;2022-07-23T11:05:52;20.90;99.90
7686;DHT22;3885;51.474;-2.576;2022-07-23T11:08:19;20.90;99.90
7686;DHT22;3885;51.474;-2.576;2022-07-23T11:10:50;20.90;99.90
7686;DHT22;3885;51.474;-2.576;2022-07-23T11:13:32;21.00;99.90
7686;DHT22;3885;51.474;-2.576;2022-07-23T11:16:17;21.30;99.90
7686;DHT22;3885;51.474;-2.576;2022-07-23T11:19:06;21.10;99.90
7686;DHT22;3885;51.474;-2.576;2022-07-23T11:21:48;21.00;99.90
7686;DHT22;3885;51.474;-2.576;2022-07-23T11:24:19;21.20;99.90
7686;DHT22;3885;51.474;-2.576;2022-07-23T11:26:54;21.30;99.90
7686;DHT22;3885;51.474;-2.576;2022-07-23T11:29:46;21.30;99.90
7686;DHT22;3885;51.474;-2.576;2022-07-23T11:32:32;21.40;99.90
7686;DHT22;3885;51.474;-2.576;2022-07-23T11:35:01;21.50;99.90
7686;DHT22;3885;51.474;-2.576;2022-07-23T11:37:33;21.50;99.90
7686;DHT22;3885;51.474;-2.576;2022-07-23T11:40:04;21.40;99.90
7686;DHT22;3885;51.474;-2.576;2022-07-23T11:42:34;21.40;99.90
7686;DHT22;3885;51.474;-2.576;2022-07-23T11:45:01;21.40;99.90
7686;DHT22;3885;51.474;-2.576;2022-07-23T11:47:28;21.40;99.90
7686;DHT22;3885;51.474;-2.576;2022-07-23T11:49:56;21.50;99.90
7686;DHT22;3885;51.474;-2.576;2022-07-23T11:52:24;21.50;99.90
7686;DHT22;3885;51.474;-2.576;2022-07-23T11:54:55;21.60;99.90
7686;DHT22;3885;51.474;-2.576;2022-07-23T11:57:24;21.60;99.90
7686;DHT22;3885;51.474;-2.576;2022-07-23T11:59:55;21.70;99.90
7686;DHT22;3885;51.474;-2.576;2022-07-23T12:02:23;21.80;99.90
7686;DHT22;3885;51.474;-2.576;2022-07-23T12:04:51;21.90;99.90
7686;DHT22;3885;51.474;-2.576;2022-07-23T12:07:29;22.00;99.90
7686;DHT22;3885;51.474;-2.576;2022-07-23T12:09:57;22.10;99.90
7686;DHT22;3885;51.474;-2.576;2022-07-23T12:12:25;22.00;99.90
7686;DHT22;3885;51.474;-2.576;2022-07-23T12:14:55;22.00;99.90
7686;DHT22;3885;51.474;-2.576;2022-07-23T12:17:28;22.10;99.90
7686;DHT22;3885;51.474;-2.576;2022-07-23T12:19:56;22.10;99.90
7686;DHT22;3885;51.474;-2.576;2022-07-23T12:22:23;21.80;99.90
7686;DHT22;3885;51.474;-2.576;2022-07-23T12:24:56;21.50;99.90
7686;DHT22;3885;51.474;-2.576;2022-07-23T12:27:24;21.50;99.90
7686;DHT22;3885;51.474;-2.576;2022-07-23T12:29:53;21.40;99.90
7686;DHT22;3885;51.474;-2.576;2022-07-23T12:32:21;21.40;99.90
7686;DHT22;3885;51.474;-2.576;2022-07-23T12:34:49;21.50;99.90
7686;DHT22;3885;51.474;-2.576;2022-07-23T12:37:30;21.50;99.90
7686;DHT22;3885;51.474;-2.576;2022-07-23T12:39:57;21.50;99.90
7686;DHT22;3885;51.474;-2.576;2022-07-23T12:42:24;21.50;99.90
7686;DHT22;3885;51.474;-2.576;2022-07-23T12:45:10;21.60;99.90
7686;DHT22;3885;51.474;-2.576;2022-07-23T12:47:57;22.90;99.90
7686;DHT22;3885;51.474;-2.576;2022-07-23T12:50:58;21.80;99.90
7686;DHT22;3885;51.474;-2.576;2022-07-23T12:53:28;21.50;99.90
7686;DHT22;3885;51.474;-2.576;2022-07-23T12:56:01;21.40;99.90
7686;DHT22;3885;51.474;-2.576;2022-07-23T12:58:40;21.30;99.90
7686;DHT22;3885;51.474;-2.576;2022-07-23T13:01:09;21.30;99.90
7686;DHT22;3885;51.474;-2.576;2022-07-23T13:03:38;21.00;99.90
7686;DHT22;3885;51.474;-2.576;2022-07-23T13:06:07;21.00;99.90
7686;DHT22;3885;51.474;-2.576;2022-07-23T13:08:36;20.90;99.90
7686;DHT22;3885;51.474;-2.576;2022-07-23T13:11:04;20.80;99.90
7686;DHT22;3885;51.474;-2.576;2022-07-23T13:13:33;21.00;99.90
7686;DHT22;3885;51.474;-2.576;2022-07-23T13:16:00;21.20;99.90
7686;DHT22;3885;51.474;-2.576;2022-07-23T13:18:29;21.40;99.90
7686;DHT22;3885;51.474;-2.576;2022-07-23T13:20:57;21.40;99.90
7686;DHT22;3885;51.474;-2.576;2022-07-23T13:23:24;21.50;99.90
7686;DHT22;3885;51.474;-2.576;2022-07-23T13:25:51;21.70;99.90
7686;DHT22;3885;51.474;-2.576;2022-07-23T13:28:20;21.70;99.90
7686;DHT22;3885;51.474;-2.576;2022-07-23T13:30:48;21.60;99.90
7686;DHT22;3885;51.474;-2.576;2022-07-23T13:33:16;21.80;99.90
7686;DHT22;3885;51.474;-2.576;2022-07-23T13:35:45;22.00;99.90
7686;DHT22;3885;51.474;-2.576;2022-07-23T13:38:13;22.20;99.90
7686;DHT22;3885;51.474;-2.576;2022-07-23T13:40:41;22.10;99.90
7686;DHT22;3885;51.474;-2.576;2022-07-23T13:43:10;21.90;99.90
7686;DHT22;3885;51.474;-2.576;2022-07-23T13:45:37;21.80;99.90
7686;DHT22;3885;51.474;-2.576;2022-07-23T13:48:06;21.80;99.90
7686;DHT22;3885;51.474;-2.576;2022-07-23T13:50:33;21.80;99.90
7686;DHT22;3885;51.474;-2.576;2022-07-23T13:53:05;21.90;99.90
7686;DHT22;3885;51.474;-2.576;2022-07-23T13:55:34;21.90;99.90
7686;DHT22;3885;51.474;-2.576;2022-07-23T13:58:00;21.80;99.90
7686;DHT22;3885;51.474;-2.576;2022-07-23T14:00:29;21.70;99.90
7686;DHT22;3885;51.474;-2.576;2022-07-23T14:02:56;21.60;99.90
7686;DHT22;3885;51.474;-2.576;2022-07-23T14:05:24;21.60;99.90
7686;DHT22;3885;51.474;-2.576;2022-07-23T14:07:51;21.60;99.90
7686;DHT22;3885;51.474;-2.576;2022-07-23T14:10:20;21.60;99.90
7686;DHT22;3885;51.474;-2.576;2022-07-23T14:12:49;21.50;99.90
7686;DHT22;3885;51.474;-2.576;2022-07-23T14:15:17;21.50;99.90
7686;DHT22;3885;51.474;-2.576;2022-07-23T14:17:45;21.30;99.90
7686;DHT22;3885;51.474;-2.576;2022-07-23T14:20:13;21.10;99.90
7686;DHT22;3885;51.474;-2.576;2022-07-23T14:22:40;21.00;99.90
7686;DHT22;3885;51.474;-2.576;2022-07-23T14:25:08;21.10;99.90
7686;DHT22;3885;51.474;-2.576;2022-07-23T14:27:37;21.10;99.90
7686;DHT22;3885;51.474;-2.576;2022-07-23T14:30:06;21.30;99.90
7686;DHT22;3885;51.474;-2.576;2022-07-23T14:32:33;21.40;99.90
7686;DHT22;3885;51.474;-2.576;2022-07-23T14:35:00;21.70;99.90
7686;DHT22;3885;51.474;-2.576;2022-07-23T14:37:27;22.00;99.90
7686;DHT22;3885;51.474;-2.576;2022-07-23T14:39:54;22.20;99.90
7686;DHT22;3885;51.474;-2.576;2022-07-23T14:42:21;22.30;99.90
7686;DHT22;3885;51.474;-2.576;2022-07-23T14:44:49;22.10;99.90
7686;DHT22;3885;51.474;-2.576;2022-07-23T14:47:16;22.10;99.90
7686;DHT22;3885;51.474;-2.576;2022-07-23T14:49:43;22.00;99.90
7686;DHT22;3885;51.474;-2.576;2022-07-23T14:52:10;21.90;99.90
7686;DHT22;3885;51.474;-2.576;2022-07-23T14:54:37;21.90;99.90
7686;DHT22;3885;51.474;-2.576;2022-07-23T14:57:04;21.80;99.90
7686;DHT22;3885;51.474;-2.576;2022-07-23T14:59:33;21.70;99.90
7686;DHT22;3885;51.474;-2.576;2022-07-23T15:02:01;21.60;99.90
7686;DHT22;3885;51.474;-2.576;2022-07-23T15:04:28;21.60;99.90
7686;DHT22;3885;51.474;-2.576;2022-07-23T15:06:55;21.50;99.90
7686;DHT22;3885;51.474;-2.576;2022-07-23T15:09:22;21.20;99.90
7686;DHT22;3885;51.474;-2.576;2022-07-23T15:11:49;21.10;99.90
7686;DHT22;3885;51.474;-2.576;2022-07-23T15:14:16;21.20;99.90
7686;DHT22;3885;51.474;-2.576;2022-07-23T15:16:43;21.20;99.90
7686;DHT22;3885;51.474;-2.576;2022-07-23T15:19:12;21.40;99.90
7686;DHT22;3885;51.474;-2.576;2022-07-23T15:21:38;21.50;99.90
7686;DHT22;3885;51.474;-2.576;2022-07-23T15:24:06;21.60;99.90
7686;DHT22;3885;51.474;-2.576;2022-07-23T15:26:33;21.70;99.90
7686;DHT22;3885;51.474;-2.576;2022-07-23T15:29:00;21.80;99.90
7686;DHT22;3885;51.474;-2.576;2022-07-23T15:31:28;21.90;99.90
7686;DHT22;3885;51.474;-2.576;2022-07-23T15:33:55;22.00;99.90
7686;DHT22;3885;51.474;-2.576;2022-07-23T15:36:23;22.00;99.90
7686;DHT22;3885;51.474;-2.576;2022-07-23T15:38:50;22.10;99.90
7686;DHT22;3885;51.474;-2.576;2022-07-23T15:41:17;22.00;99.90
7686;DHT22;3885;51.474;-2.576;2022-07-23T15:43:44;21.90;99.90
7686;DHT22;3885;51.474;-2.576;2022-07-23T15:46:11;21.90;99.90
7686;DHT22;3885;51.474;-2.576;2022-07-23T15:48:38;21.80;99.90
7686;DHT22;3885;51.474;-2.576;2022-07-23T15:51:05;21.70;99.90
7686;DHT22;3885;51.474;-2.576;2022-07-23T15:53:34;21.60;99.90
7686;DHT22;3885;51.474;-2.576;2022-07-23T15:56:01;21.60;99.90